Estación Meteorológica Peña el Pijo (Robertgarden) [ 12/10/18 12:20:20 CET ]

Fecha Hora Presion(HPa) Temp (°C) Humedad % Rocio (°C) Viento ( m/s) Direccion Lluvia 1Hora(mm) Lluvia 24H(mm) LLuvia Total(mm)
2018-Oct-19 01:01:39 1001.100 10.1 88 8.2       10.87 27.45
2018-Oct-19 02:01:48 1001.700 9.8 88 7.9       10.87 27.45
2018-Oct-19 03:05:09 1001.600 9.8 89 8.0       10.87 27.45
2018-Oct-19 04:01:41 1001.700 9.1 89 7.4       10.87 27.45
2018-Oct-19 05:01:49 1001.300 9.5 90 7.9       10.87 27.45
2018-Oct-19 06:01:42 1001.700 9.6 90 8.0       10.87 27.45
2018-Oct-19 07:01:46 1001.700 9.8 91 8.4       10.87 27.45
2018-Oct-19 08:01:42 1002.400 9.6 91 8.2       10.87 27.45
2018-Oct-19 09:01:43 1002.400 9.3 91 7.9     1.55 12.43 29.00
2018-Oct-19 10:02:02 1003.300 9.4 91 8.0     0.51 12.95 29.52
2018-Oct-19 11:01:40 1003.700 11.2 92 9.9       12.95 29.52
2018-Oct-19 12:01:56 1004.100 11.6 90 10.0       12.95 29.52
2018-Oct-19 13:01:56 1004.500 12.7 86 10.4       12.95 29.52
2018-Oct-19 14:01:49 1004.300 14.6 79 11.0     0.51 13.46 30.04
2018-Oct-19 15:01:44 1003.500 16.4 59 8.4 0.8 WNW   13.46 30.04
2018-Oct-19 16:01:49 1003.500 17.6 54 8.1 1.0 NW   13.46 30.04
2018-Oct-19 17:01:54 1003.600 15.9 57 7.4       13.46 30.04
2018-Oct-19 18:01:49 1004.000 14.4 62 7.2       13.46 30.04
2018-Oct-19 19:01:42 1004.300 12.3 66 6.1       6.21 30.04
2018-Oct-19 20:01:46 1005.300 10.8 71 5.8       3.10 30.04
2018-Oct-19 21:01:46 1006.200 8.9 76 4.8       2.59 30.04
2018-Oct-19 22:01:58 1006.700 7.3 80 4.1       2.59 30.04
2018-Oct-19 23:01:54 1007.100 6.3 83 3.6       2.59 30.04

Temperatura Máxima:17°    Temperatura Mínima:
Presión Máxima:1007.100 Hpa    Presión Mínima:1001.100 Hpa


Volver